sensor_id;sensor_type;location;lat;lon;timestamp;P1;durP1;ratioP1;P2;durP2;ratioP2
7340;SDS011;6870;50.944;6.932;2023-07-30T00:02:04;3.73;;;1.73;;
7340;SDS011;6870;50.944;6.932;2023-07-30T00:04:32;2.33;;;1.50;;
7340;SDS011;6870;50.944;6.932;2023-07-30T00:07:00;1.53;;;1.00;;
7340;SDS011;6870;50.944;6.932;2023-07-30T00:09:28;1.90;;;1.30;;
7340;SDS011;6870;50.944;6.932;2023-07-30T00:11:57;1.50;;;1.33;;
7340;SDS011;6870;50.944;6.932;2023-07-30T00:14:25;2.13;;;1.50;;
7340;SDS011;6870;50.944;6.932;2023-07-30T00:16:54;1.80;;;1.47;;
7340;SDS011;6870;50.944;6.932;2023-07-30T00:19:22;2.90;;;1.60;;
7340;SDS011;6870;50.944;6.932;2023-07-30T00:21:50;2.00;;;1.70;;
7340;SDS011;6870;50.944;6.932;2023-07-30T00:24:18;2.20;;;1.40;;
7340;SDS011;6870;50.944;6.932;2023-07-30T00:26:46;2.57;;;1.73;;
7340;SDS011;6870;50.944;6.932;2023-07-30T00:29:14;4.67;;;1.90;;
7340;SDS011;6870;50.944;6.932;2023-07-30T00:31:42;1.90;;;1.33;;
7340;SDS011;6870;50.944;6.932;2023-07-30T00:34:11;2.53;;;1.50;;
7340;SDS011;6870;50.944;6.932;2023-07-30T00:36:39;2.70;;;1.53;;
7340;SDS011;6870;50.944;6.932;2023-07-30T00:39:07;3.03;;;1.60;;
7340;SDS011;6870;50.944;6.932;2023-07-30T00:41:37;2.47;;;1.30;;
7340;SDS011;6870;50.944;6.932;2023-07-30T00:44:05;2.27;;;1.40;;
7340;SDS011;6870;50.944;6.932;2023-07-30T00:46:33;2.70;;;1.60;;
7340;SDS011;6870;50.944;6.932;2023-07-30T00:49:02;3.27;;;1.67;;
7340;SDS011;6870;50.944;6.932;2023-07-30T00:51:33;2.43;;;1.87;;
7340;SDS011;6870;50.944;6.932;2023-07-30T00:54:02;1.90;;;1.63;;
7340;SDS011;6870;50.944;6.932;2023-07-30T00:56:30;3.40;;;1.60;;
7340;SDS011;6870;50.944;6.932;2023-07-30T00:58:58;2.30;;;1.73;;
7340;SDS011;6870;50.944;6.932;2023-07-30T01:01:26;1.80;;;1.43;;
7340;SDS011;6870;50.944;6.932;2023-07-30T01:03:54;5.90;;;1.73;;
7340;SDS011;6870;50.944;6.932;2023-07-30T01:06:22;1.63;;;1.50;;
7340;SDS011;6870;50.944;6.932;2023-07-30T01:08:52;2.40;;;1.73;;
7340;SDS011;6870;50.944;6.932;2023-07-30T01:11:20;2.67;;;2.00;;
7340;SDS011;6870;50.944;6.932;2023-07-30T01:13:48;5.00;;;1.50;;
7340;SDS011;6870;50.944;6.932;2023-07-30T01:16:17;5.33;;;1.93;;
7340;SDS011;6870;50.944;6.932;2023-07-30T01:18:45;3.40;;;1.60;;
7340;SDS011;6870;50.944;6.932;2023-07-30T01:21:15;3.17;;;1.73;;
7340;SDS011;6870;50.944;6.932;2023-07-30T01:23:43;1.93;;;1.50;;
7340;SDS011;6870;50.944;6.932;2023-07-30T01:26:12;2.13;;;1.50;;
7340;SDS011;6870;50.944;6.932;2023-07-30T01:28:48;1.87;;;1.60;;
7340;SDS011;6870;50.944;6.932;2023-07-30T01:31:19;3.47;;;2.10;;
7340;SDS011;6870;50.944;6.932;2023-07-30T01:33:48;5.07;;;1.60;;
7340;SDS011;6870;50.944;6.932;2023-07-30T01:36:23;2.20;;;1.80;;
7340;SDS011;6870;50.944;6.932;2023-07-30T01:38:51;1.97;;;1.77;;
7340;SDS011;6870;50.944;6.932;2023-07-30T01:41:20;4.03;;;1.70;;
7340;SDS011;6870;50.944;6.932;2023-07-30T01:43:48;2.70;;;1.50;;
7340;SDS011;6870;50.944;6.932;2023-07-30T01:46:16;2.53;;;1.60;;
7340;SDS011;6870;50.944;6.932;2023-07-30T01:48:44;1.90;;;1.47;;
7340;SDS011;6870;50.944;6.932;2023-07-30T01:51:12;2.63;;;1.50;;
7340;SDS011;6870;50.944;6.932;2023-07-30T01:53:42;2.13;;;1.80;;
7340;SDS011;6870;50.944;6.932;2023-07-30T01:56:10;2.40;;;1.47;;
7340;SDS011;6870;50.944;6.932;2023-07-30T01:58:38;2.40;;;1.23;;
7340;SDS011;6870;50.944;6.932;2023-07-30T02:01:06;3.20;;;1.50;;
7340;SDS011;6870;50.944;6.932;2023-07-30T02:03:34;1.57;;;1.13;;
7340;SDS011;6870;50.944;6.932;2023-07-30T02:06:02;2.60;;;1.50;;
7340;SDS011;6870;50.944;6.932;2023-07-30T02:08:30;3.23;;;1.70;;
7340;SDS011;6870;50.944;6.932;2023-07-30T02:11:00;1.70;;;1.10;;
7340;SDS011;6870;50.944;6.932;2023-07-30T02:13:28;3.33;;;1.40;;
7340;SDS011;6870;50.944;6.932;2023-07-30T02:15:56;1.83;;;1.50;;
7340;SDS011;6870;50.944;6.932;2023-07-30T02:18:24;1.93;;;1.53;;
7340;SDS011;6870;50.944;6.932;2023-07-30T02:20:52;2.90;;;1.53;;
7340;SDS011;6870;50.944;6.932;2023-07-30T02:23:20;1.60;;;1.23;;
7340;SDS011;6870;50.944;6.932;2023-07-30T02:25:48;2.97;;;1.40;;
7340;SDS011;6870;50.944;6.932;2023-07-30T02:28:18;2.20;;;1.50;;
7340;SDS011;6870;50.944;6.932;2023-07-30T02:30:46;1.50;;;1.10;;
7340;SDS011;6870;50.944;6.932;2023-07-30T02:33:14;2.90;;;1.80;;
7340;SDS011;6870;50.944;6.932;2023-07-30T02:35:42;3.00;;;1.67;;
7340;SDS011;6870;50.944;6.932;2023-07-30T02:38:10;1.87;;;1.50;;
7340;SDS011;6870;50.944;6.932;2023-07-30T02:40:38;1.90;;;1.60;;
7340;SDS011;6870;50.944;6.932;2023-07-30T02:43:06;2.30;;;1.47;;
7340;SDS011;6870;50.944;6.932;2023-07-30T02:45:36;3.20;;;1.60;;
7340;SDS011;6870;50.944;6.932;2023-07-30T02:48:05;2.87;;;1.90;;
7340;SDS011;6870;50.944;6.932;2023-07-30T02:50:33;1.70;;;1.53;;
7340;SDS011;6870;50.944;6.932;2023-07-30T02:53:02;2.20;;;1.50;;
7340;SDS011;6870;50.944;6.932;2023-07-30T02:55:29;3.00;;;2.23;;
7340;SDS011;6870;50.944;6.932;2023-07-30T02:57:57;2.63;;;1.57;;
7340;SDS011;6870;50.944;6.932;2023-07-30T03:00:25;1.73;;;1.57;;
7340;SDS011;6870;50.944;6.932;2023-07-30T03:02:55;2.93;;;1.30;;
7340;SDS011;6870;50.944;6.932;2023-07-30T03:05:24;4.37;;;1.83;;
7340;SDS011;6870;50.944;6.932;2023-07-30T03:07:53;1.43;;;1.27;;
7340;SDS011;6870;50.944;6.932;2023-07-30T03:10:21;2.10;;;1.30;;
7340;SDS011;6870;50.944;6.932;2023-07-30T03:12:49;2.50;;;1.83;;
7340;SDS011;6870;50.944;6.932;2023-07-30T03:15:17;1.60;;;1.30;;
7340;SDS011;6870;50.944;6.932;2023-07-30T03:17:45;3.17;;;1.37;;
7340;SDS011;6870;50.944;6.932;2023-07-30T03:20:14;1.87;;;1.50;;
7340;SDS011;6870;50.944;6.932;2023-07-30T03:22:44;2.43;;;1.60;;
7340;SDS011;6870;50.944;6.932;2023-07-30T03:25:12;2.20;;;1.53;;
7340;SDS011;6870;50.944;6.932;2023-07-30T03:27:40;2.03;;;1.40;;
7340;SDS011;6870;50.944;6.932;2023-07-30T03:30:08;2.47;;;1.70;;
7340;SDS011;6870;50.944;6.932;2023-07-30T03:32:38;2.30;;;1.60;;
7340;SDS011;6870;50.944;6.932;2023-07-30T03:35:07;3.20;;;1.80;;
7340;SDS011;6870;50.944;6.932;2023-07-30T03:37:37;2.73;;;1.77;;
7340;SDS011;6870;50.944;6.932;2023-07-30T03:40:05;4.13;;;1.43;;
7340;SDS011;6870;50.944;6.932;2023-07-30T03:42:35;3.90;;;2.00;;
7340;SDS011;6870;50.944;6.932;2023-07-30T03:45:03;2.43;;;1.40;;
7340;SDS011;6870;50.944;6.932;2023-07-30T03:47:32;2.20;;;1.60;;
7340;SDS011;6870;50.944;6.932;2023-07-30T03:50:00;2.03;;;1.60;;
7340;SDS011;6870;50.944;6.932;2023-07-30T03:52:28;1.97;;;1.67;;
7340;SDS011;6870;50.944;6.932;2023-07-30T03:54:58;1.63;;;1.27;;
7340;SDS011;6870;50.944;6.932;2023-07-30T03:57:26;1.77;;;1.47;;
7340;SDS011;6870;50.944;6.932;2023-07-30T03:59:55;2.33;;;1.70;;
7340;SDS011;6870;50.944;6.932;2023-07-30T04:02:24;2.93;;;1.80;;
7340;SDS011;6870;50.944;6.932;2023-07-30T04:04:52;2.77;;;1.90;;
7340;SDS011;6870;50.944;6.932;2023-07-30T04:07:20;4.20;;;1.60;;
7340;SDS011;6870;50.944;6.932;2023-07-30T04:09:48;2.23;;;1.40;;
7340;SDS011;6870;50.944;6.932;2023-07-30T04:12:17;2.00;;;1.60;;
7340;SDS011;6870;50.944;6.932;2023-07-30T04:14:47;2.17;;;1.80;;
7340;SDS011;6870;50.944;6.932;2023-07-30T04:17:15;1.80;;;1.43;;
7340;SDS011;6870;50.944;6.932;2023-07-30T04:19:43;3.03;;;1.73;;
7340;SDS011;6870;50.944;6.932;2023-07-30T04:22:12;2.90;;;1.60;;
7340;SDS011;6870;50.944;6.932;2023-07-30T04:24:40;2.87;;;1.73;;
7340;SDS011;6870;50.944;6.932;2023-07-30T04:27:08;4.10;;;1.90;;
7340;SDS011;6870;50.944;6.932;2023-07-30T04:29:37;2.00;;;1.30;;
7340;SDS011;6870;50.944;6.932;2023-07-30T04:32:05;3.13;;;1.50;;
7340;SDS011;6870;50.944;6.932;2023-07-30T04:34:34;2.13;;;1.57;;
7340;SDS011;6870;50.944;6.932;2023-07-30T04:37:03;2.63;;;2.00;;
7340;SDS011;6870;50.944;6.932;2023-07-30T04:39:31;2.37;;;1.33;;
7340;SDS011;6870;50.944;6.932;2023-07-30T04:42:00;2.63;;;1.50;;
7340;SDS011;6870;50.944;6.932;2023-07-30T04:44:28;2.30;;;1.77;;
7340;SDS011;6870;50.944;6.932;2023-07-30T04:46:57;1.90;;;1.70;;
7340;SDS011;6870;50.944;6.932;2023-07-30T04:49:25;2.77;;;1.67;;
7340;SDS011;6870;50.944;6.932;2023-07-30T04:51:53;2.23;;;1.40;;
7340;SDS011;6870;50.944;6.932;2023-07-30T04:54:21;2.90;;;1.77;;
7340;SDS011;6870;50.944;6.932;2023-07-30T04:56:49;3.10;;;1.77;;
7340;SDS011;6870;50.944;6.932;2023-07-30T04:59:17;2.13;;;1.60;;
7340;SDS011;6870;50.944;6.932;2023-07-30T05:01:46;3.90;;;1.70;;
7340;SDS011;6870;50.944;6.932;2023-07-30T05:04:15;1.80;;;1.50;;
7340;SDS011;6870;50.944;6.932;2023-07-30T05:06:43;2.57;;;1.60;;
7340;SDS011;6870;50.944;6.932;2023-07-30T05:09:11;2.23;;;1.20;;
7340;SDS011;6870;50.944;6.932;2023-07-30T05:11:39;2.03;;;1.30;;
7340;SDS011;6870;50.944;6.932;2023-07-30T05:14:07;2.60;;;1.33;;
7340;SDS011;6870;50.944;6.932;2023-07-30T05:16:35;2.00;;;1.30;;
7340;SDS011;6870;50.944;6.932;2023-07-30T05:19:04;2.67;;;1.57;;
7340;SDS011;6870;50.944;6.932;2023-07-30T05:21:33;2.60;;;1.50;;
7340;SDS011;6870;50.944;6.932;2023-07-30T05:24:02;3.77;;;1.60;;
7340;SDS011;6870;50.944;6.932;2023-07-30T05:26:31;1.97;;;1.20;;
7340;SDS011;6870;50.944;6.932;2023-07-30T05:28:59;3.20;;;1.50;;
7340;SDS011;6870;50.944;6.932;2023-07-30T05:31:27;4.23;;;1.37;;
7340;SDS011;6870;50.944;6.932;2023-07-30T05:33:55;2.33;;;1.90;;
7340;SDS011;6870;50.944;6.932;2023-07-30T05:36:23;1.83;;;1.27;;
7340;SDS011;6870;50.944;6.932;2023-07-30T05:38:52;2.80;;;1.43;;
7340;SDS011;6870;50.944;6.932;2023-07-30T05:41:20;2.20;;;1.57;;
7340;SDS011;6870;50.944;6.932;2023-07-30T05:43:48;1.63;;;1.30;;
7340;SDS011;6870;50.944;6.932;2023-07-30T05:46:16;2.07;;;1.43;;
7340;SDS011;6870;50.944;6.932;2023-07-30T05:48:44;1.80;;;1.43;;
7340;SDS011;6870;50.944;6.932;2023-07-30T05:51:12;2.80;;;1.33;;
7340;SDS011;6870;50.944;6.932;2023-07-30T05:53:40;1.83;;;1.53;;
7340;SDS011;6870;50.944;6.932;2023-07-30T05:56:09;2.80;;;1.67;;
7340;SDS011;6870;50.944;6.932;2023-07-30T05:58:39;2.20;;;1.60;;
7340;SDS011;6870;50.944;6.932;2023-07-30T06:01:07;1.47;;;1.10;;
7340;SDS011;6870;50.944;6.932;2023-07-30T06:03:36;3.10;;;1.63;;
7340;SDS011;6870;50.944;6.932;2023-07-30T06:06:04;1.83;;;1.33;;
7340;SDS011;6870;50.944;6.932;2023-07-30T06:08:32;4.60;;;1.87;;
7340;SDS011;6870;50.944;6.932;2023-07-30T06:11:00;1.33;;;1.03;;
7340;SDS011;6870;50.944;6.932;2023-07-30T06:13:30;2.43;;;1.40;;
7340;SDS011;6870;50.944;6.932;2023-07-30T06:15:58;4.23;;;1.30;;
7340;SDS011;6870;50.944;6.932;2023-07-30T06:18:26;1.90;;;1.20;;
7340;SDS011;6870;50.944;6.932;2023-07-30T06:20:54;1.90;;;1.40;;
7340;SDS011;6870;50.944;6.932;2023-07-30T06:23:22;2.33;;;1.50;;
7340;SDS011;6870;50.944;6.932;2023-07-30T06:25:50;4.63;;;1.60;;
7340;SDS011;6870;50.944;6.932;2023-07-30T06:28:18;1.87;;;1.40;;
7340;SDS011;6870;50.944;6.932;2023-07-30T06:30:48;2.87;;;1.60;;
7340;SDS011;6870;50.944;6.932;2023-07-30T06:33:16;2.57;;;1.40;;
7340;SDS011;6870;50.944;6.932;2023-07-30T06:35:44;2.30;;;1.33;;
7340;SDS011;6870;50.944;6.932;2023-07-30T06:38:12;2.30;;;1.20;;
7340;SDS011;6870;50.944;6.932;2023-07-30T06:40:40;3.37;;;1.70;;
7340;SDS011;6870;50.944;6.932;2023-07-30T06:43:08;2.27;;;1.33;;
7340;SDS011;6870;50.944;6.932;2023-07-30T06:45:36;2.47;;;1.50;;
7340;SDS011;6870;50.944;6.932;2023-07-30T06:48:05;3.50;;;1.40;;
7340;SDS011;6870;50.944;6.932;2023-07-30T06:50:33;6.23;;;1.80;;
7340;SDS011;6870;50.944;6.932;2023-07-30T06:53:01;1.77;;;1.27;;
7340;SDS011;6870;50.944;6.932;2023-07-30T06:55:29;3.00;;;1.53;;
7340;SDS011;6870;50.944;6.932;2023-07-30T06:57:57;2.10;;;1.53;;
7340;SDS011;6870;50.944;6.932;2023-07-30T07:03:27;2.27;;;1.50;;
7340;SDS011;6870;50.944;6.932;2023-07-30T07:05:56;1.77;;;1.20;;
7340;SDS011;6870;50.944;6.932;2023-07-30T07:08:24;2.33;;;1.20;;
7340;SDS011;6870;50.944;6.932;2023-07-30T07:10:53;1.30;;;1.10;;
7340;SDS011;6870;50.944;6.932;2023-07-30T07:13:21;3.37;;;1.60;;
7340;SDS011;6870;50.944;6.932;2023-07-30T07:15:49;2.03;;;1.00;;
7340;SDS011;6870;50.944;6.932;2023-07-30T07:18:18;1.93;;;1.20;;
7340;SDS011;6870;50.944;6.932;2023-07-30T07:20:48;1.63;;;1.10;;
7340;SDS011;6870;50.944;6.932;2023-07-30T07:23:16;1.93;;;1.30;;
7340;SDS011;6870;50.944;6.932;2023-07-30T07:25:44;1.70;;;1.20;;
7340;SDS011;6870;50.944;6.932;2023-07-30T07:28:12;2.80;;;1.57;;
7340;SDS011;6870;50.944;6.932;2023-07-30T07:30:40;5.27;;;2.00;;
7340;SDS011;6870;50.944;6.932;2023-07-30T07:33:08;2.50;;;1.60;;
7340;SDS011;6870;50.944;6.932;2023-07-30T07:35:39;2.13;;;1.30;;
7340;SDS011;6870;50.944;6.932;2023-07-30T07:38:08;2.63;;;1.50;;
7340;SDS011;6870;50.944;6.932;2023-07-30T07:40:36;1.63;;;1.10;;
7340;SDS011;6870;50.944;6.932;2023-07-30T07:43:06;2.60;;;1.87;;
7340;SDS011;6870;50.944;6.932;2023-07-30T07:45:35;3.33;;;1.83;;
7340;SDS011;6870;50.944;6.932;2023-07-30T07:48:03;2.60;;;1.33;;
7340;SDS011;6870;50.944;6.932;2023-07-30T07:50:31;2.20;;;1.33;;
7340;SDS011;6870;50.944;6.932;2023-07-30T07:52:59;1.80;;;1.20;;
7340;SDS011;6870;50.944;6.932;2023-07-30T07:55:29;2.60;;;1.40;;
7340;SDS011;6870;50.944;6.932;2023-07-30T07:57:57;2.17;;;1.30;;
7340;SDS011;6870;50.944;6.932;2023-07-30T08:00:25;3.00;;;1.83;;
7340;SDS011;6870;50.944;6.932;2023-07-30T08:02:53;2.90;;;1.40;;
7340;SDS011;6870;50.944;6.932;2023-07-30T08:05:21;4.73;;;1.80;;
7340;SDS011;6870;50.944;6.932;2023-07-30T08:07:50;2.80;;;1.83;;
7340;SDS011;6870;50.944;6.932;2023-07-30T08:10:19;2.30;;;1.53;;
7340;SDS011;6870;50.944;6.932;2023-07-30T08:12:48;1.90;;;1.40;;
7340;SDS011;6870;50.944;6.932;2023-07-30T08:15:16;2.70;;;1.20;;
7340;SDS011;6870;50.944;6.932;2023-07-30T08:17:45;2.07;;;1.30;;
7340;SDS011;6870;50.944;6.932;2023-07-30T08:20:14;2.23;;;1.57;;
7340;SDS011;6870;50.944;6.932;2023-07-30T08:22:42;2.80;;;1.53;;
7340;SDS011;6870;50.944;6.932;2023-07-30T08:25:10;3.27;;;1.67;;
7340;SDS011;6870;50.944;6.932;2023-07-30T08:27:38;2.23;;;1.43;;
7340;SDS011;6870;50.944;6.932;2023-07-30T08:30:08;1.77;;;1.40;;
7340;SDS011;6870;50.944;6.932;2023-07-30T08:32:37;1.60;;;1.30;;
7340;SDS011;6870;50.944;6.932;2023-07-30T08:35:08;2.60;;;1.60;;
7340;SDS011;6870;50.944;6.932;2023-07-30T08:37:36;2.97;;;2.00;;
7340;SDS011;6870;50.944;6.932;2023-07-30T08:40:04;2.03;;;1.70;;
7340;SDS011;6870;50.944;6.932;2023-07-30T08:42:34;3.37;;;2.03;;
7340;SDS011;6870;50.944;6.932;2023-07-30T08:45:03;5.93;;;1.77;;
7340;SDS011;6870;50.944;6.932;2023-07-30T08:47:35;2.87;;;1.50;;
7340;SDS011;6870;50.944;6.932;2023-07-30T08:50:07;4.50;;;1.90;;
7340;SDS011;6870;50.944;6.932;2023-07-30T08:52:36;4.87;;;1.87;;
7340;SDS011;6870;50.944;6.932;2023-07-30T08:55:04;5.13;;;1.77;;
7340;SDS011;6870;50.944;6.932;2023-07-30T08:57:34;4.23;;;2.03;;
7340;SDS011;6870;50.944;6.932;2023-07-30T09:00:03;4.53;;;1.90;;
7340;SDS011;6870;50.944;6.932;2023-07-30T09:02:37;7.60;;;2.50;;
7340;SDS011;6870;50.944;6.932;2023-07-30T09:05:09;4.40;;;2.53;;
7340;SDS011;6870;50.944;6.932;2023-07-30T09:07:38;5.70;;;2.00;;
7340;SDS011;6870;50.944;6.932;2023-07-30T09:10:06;6.23;;;2.97;;
7340;SDS011;6870;50.944;6.932;2023-07-30T09:12:35;7.77;;;3.93;;
7340;SDS011;6870;50.944;6.932;2023-07-30T09:15:04;4.73;;;2.80;;
7340;SDS011;6870;50.944;6.932;2023-07-30T09:17:35;7.00;;;3.50;;
7340;SDS011;6870;50.944;6.932;2023-07-30T09:20:04;5.43;;;3.80;;
7340;SDS011;6870;50.944;6.932;2023-07-30T09:22:34;8.83;;;3.27;;
7340;SDS011;6870;50.944;6.932;2023-07-30T09:25:06;5.57;;;3.00;;
7340;SDS011;6870;50.944;6.932;2023-07-30T09:27:35;4.60;;;2.30;;
7340;SDS011;6870;50.944;6.932;2023-07-30T09:30:03;5.53;;;2.50;;
7340;SDS011;6870;50.944;6.932;2023-07-30T09:32:34;7.80;;;2.70;;
7340;SDS011;6870;50.944;6.932;2023-07-30T09:35:06;5.77;;;2.40;;
7340;SDS011;6870;50.944;6.932;2023-07-30T09:37:36;9.17;;;2.87;;
7340;SDS011;6870;50.944;6.932;2023-07-30T09:40:05;6.03;;;2.60;;
7340;SDS011;6870;50.944;6.932;2023-07-30T09:42:36;4.77;;;2.43;;
7340;SDS011;6870;50.944;6.932;2023-07-30T09:45:06;3.40;;;2.10;;
7340;SDS011;6870;50.944;6.932;2023-07-30T09:47:37;3.93;;;2.40;;
7340;SDS011;6870;50.944;6.932;2023-07-30T09:50:06;7.97;;;2.37;;
7340;SDS011;6870;50.944;6.932;2023-07-30T09:52:35;4.70;;;2.10;;
7340;SDS011;6870;50.944;6.932;2023-07-30T09:55:04;5.53;;;2.50;;
7340;SDS011;6870;50.944;6.932;2023-07-30T09:57:35;5.60;;;2.60;;
7340;SDS011;6870;50.944;6.932;2023-07-30T10:00:03;6.70;;;2.77;;
7340;SDS011;6870;50.944;6.932;2023-07-30T10:02:38;7.30;;;2.37;;
7340;SDS011;6870;50.944;6.932;2023-07-30T10:05:10;6.00;;;2.00;;
7340;SDS011;6870;50.944;6.932;2023-07-30T10:07:42;5.33;;;2.10;;
7340;SDS011;6870;50.944;6.932;2023-07-30T10:10:15;2.63;;;1.70;;
7340;SDS011;6870;50.944;6.932;2023-07-30T10:12:44;6.03;;;2.23;;
7340;SDS011;6870;50.944;6.932;2023-07-30T10:15:14;9.53;;;2.10;;
7340;SDS011;6870;50.944;6.932;2023-07-30T10:17:48;5.10;;;1.67;;
7340;SDS011;6870;50.944;6.932;2023-07-30T10:20:17;6.63;;;2.30;;
7340;SDS011;6870;50.944;6.932;2023-07-30T10:22:51;4.80;;;2.43;;
7340;SDS011;6870;50.944;6.932;2023-07-30T10:25:20;4.00;;;1.73;;
7340;SDS011;6870;50.944;6.932;2023-07-30T10:27:50;3.70;;;2.23;;
7340;SDS011;6870;50.944;6.932;2023-07-30T10:30:20;5.37;;;1.90;;
7340;SDS011;6870;50.944;6.932;2023-07-30T10:32:59;7.10;;;2.17;;
7340;SDS011;6870;50.944;6.932;2023-07-30T10:35:36;4.00;;;1.90;;
7340;SDS011;6870;50.944;6.932;2023-07-30T10:38:14;5.57;;;1.70;;
7340;SDS011;6870;50.944;6.932;2023-07-30T10:40:59;6.63;;;1.67;;
7340;SDS011;6870;50.944;6.932;2023-07-30T10:43:29;6.53;;;2.00;;
7340;SDS011;6870;50.944;6.932;2023-07-30T10:45:58;4.50;;;2.30;;
7340;SDS011;6870;50.944;6.932;2023-07-30T10:48:30;4.03;;;1.90;;
7340;SDS011;6870;50.944;6.932;2023-07-30T10:51:04;4.40;;;1.77;;
7340;SDS011;6870;50.944;6.932;2023-07-30T10:53:35;5.17;;;2.13;;
7340;SDS011;6870;50.944;6.932;2023-07-30T10:56:04;5.17;;;2.20;;
7340;SDS011;6870;50.944;6.932;2023-07-30T10:58:34;5.50;;;2.20;;
7340;SDS011;6870;50.944;6.932;2023-07-30T11:01:04;6.67;;;2.27;;
7340;SDS011;6870;50.944;6.932;2023-07-30T11:03:35;3.40;;;1.80;;
7340;SDS011;6870;50.944;6.932;2023-07-30T11:06:05;3.03;;;1.63;;
7340;SDS011;6870;50.944;6.932;2023-07-30T11:08:34;3.70;;;1.57;;
7340;SDS011;6870;50.944;6.932;2023-07-30T11:11:06;3.83;;;1.73;;
7340;SDS011;6870;50.944;6.932;2023-07-30T11:13:36;3.87;;;1.80;;
7340;SDS011;6870;50.944;6.932;2023-07-30T11:16:05;4.57;;;2.13;;
7340;SDS011;6870;50.944;6.932;2023-07-30T11:18:35;3.03;;;1.40;;
7340;SDS011;6870;50.944;6.932;2023-07-30T11:21:04;3.70;;;1.40;;
7340;SDS011;6870;50.944;6.932;2023-07-30T11:23:34;7.20;;;2.07;;
7340;SDS011;6870;50.944;6.932;2023-07-30T11:26:05;5.50;;;1.80;;
7340;SDS011;6870;50.944;6.932;2023-07-30T11:28:35;6.43;;;1.70;;
7340;SDS011;6870;50.944;6.932;2023-07-30T11:31:06;3.60;;;1.67;;
7340;SDS011;6870;50.944;6.932;2023-07-30T11:33:38;5.90;;;1.60;;
7340;SDS011;6870;50.944;6.932;2023-07-30T11:36:09;2.53;;;1.33;;
7340;SDS011;6870;50.944;6.932;2023-07-30T11:38:39;4.10;;;1.90;;
7340;SDS011;6870;50.944;6.932;2023-07-30T11:41:08;3.57;;;1.63;;
7340;SDS011;6870;50.944;6.932;2023-07-30T11:43:38;6.10;;;1.33;;
7340;SDS011;6870;50.944;6.932;2023-07-30T11:46:08;2.77;;;1.13;;
7340;SDS011;6870;50.944;6.932;2023-07-30T11:48:41;3.70;;;1.30;;
7340;SDS011;6870;50.944;6.932;2023-07-30T11:51:20;5.53;;;1.77;;
7340;SDS011;6870;50.944;6.932;2023-07-30T11:53:51;5.40;;;1.87;;
7340;SDS011;6870;50.944;6.932;2023-07-30T11:56:21;5.23;;;1.47;;
7340;SDS011;6870;50.944;6.932;2023-07-30T11:58:53;3.67;;;1.50;;
7340;SDS011;6870;50.944;6.932;2023-07-30T12:01:23;4.50;;;1.70;;
7340;SDS011;6870;50.944;6.932;2023-07-30T12:03:58;3.03;;;1.47;;
7340;SDS011;6870;50.944;6.932;2023-07-30T12:06:37;2.87;;;1.20;;
7340;SDS011;6870;50.944;6.932;2023-07-30T12:09:09;3.57;;;1.63;;
7340;SDS011;6870;50.944;6.932;2023-07-30T12:11:48;1.60;;;1.10;;
7340;SDS011;6870;50.944;6.932;2023-07-30T12:14:19;4.90;;;2.10;;
7340;SDS011;6870;50.944;6.932;2023-07-30T12:16:51;3.33;;;1.73;;
7340;SDS011;6870;50.944;6.932;2023-07-30T12:19:21;4.37;;;1.60;;
7340;SDS011;6870;50.944;6.932;2023-07-30T12:21:49;4.30;;;1.57;;
7340;SDS011;6870;50.944;6.932;2023-07-30T12:24:17;4.40;;;1.73;;
7340;SDS011;6870;50.944;6.932;2023-07-30T12:26:46;4.80;;;1.57;;
7340;SDS011;6870;50.944;6.932;2023-07-30T12:29:14;5.30;;;1.90;;
7340;SDS011;6870;50.944;6.932;2023-07-30T12:31:42;3.97;;;1.80;;
7340;SDS011;6870;50.944;6.932;2023-07-30T12:34:12;3.40;;;1.27;;
7340;SDS011;6870;50.944;6.932;2023-07-30T12:36:41;4.30;;;2.10;;
7340;SDS011;6870;50.944;6.932;2023-07-30T12:39:09;3.67;;;1.47;;
7340;SDS011;6870;50.944;6.932;2023-07-30T12:41:38;2.87;;;1.40;;
7340;SDS011;6870;50.944;6.932;2023-07-30T12:44:06;1.83;;;1.10;;
7340;SDS011;6870;50.944;6.932;2023-07-30T12:46:35;2.17;;;1.40;;
7340;SDS011;6870;50.944;6.932;2023-07-30T12:49:03;5.00;;;1.93;;
7340;SDS011;6870;50.944;6.932;2023-07-30T12:51:31;4.10;;;1.90;;
7340;SDS011;6870;50.944;6.932;2023-07-30T12:54:01;2.77;;;1.37;;
7340;SDS011;6870;50.944;6.932;2023-07-30T12:56:29;3.70;;;1.97;;
7340;SDS011;6870;50.944;6.932;2023-07-30T12:58:59;2.60;;;1.40;;
7340;SDS011;6870;50.944;6.932;2023-07-30T13:01:27;2.50;;;1.40;;
7340;SDS011;6870;50.944;6.932;2023-07-30T13:03:55;6.00;;;1.70;;
7340;SDS011;6870;50.944;6.932;2023-07-30T13:06:25;2.33;;;1.47;;
7340;SDS011;6870;50.944;6.932;2023-07-30T13:08:53;3.20;;;1.70;;
7340;SDS011;6870;50.944;6.932;2023-07-30T13:11:22;5.40;;;1.97;;
7340;SDS011;6870;50.944;6.932;2023-07-30T13:13:50;2.93;;;1.40;;
7340;SDS011;6870;50.944;6.932;2023-07-30T13:16:19;2.97;;;1.33;;
7340;SDS011;6870;50.944;6.932;2023-07-30T13:18:47;3.10;;;1.43;;
7340;SDS011;6870;50.944;6.932;2023-07-30T13:21:15;2.10;;;1.40;;
7340;SDS011;6870;50.944;6.932;2023-07-30T13:23:43;2.60;;;1.13;;
7340;SDS011;6870;50.944;6.932;2023-07-30T13:26:11;3.07;;;1.37;;
7340;SDS011;6870;50.944;6.932;2023-07-30T13:28:40;3.30;;;1.60;;
7340;SDS011;6870;50.944;6.932;2023-07-30T13:31:08;2.20;;;1.20;;
7340;SDS011;6870;50.944;6.932;2023-07-30T13:33:37;2.23;;;1.30;;
7340;SDS011;6870;50.944;6.932;2023-07-30T13:36:05;5.20;;;2.27;;
7340;SDS011;6870;50.944;6.932;2023-07-30T13:38:34;2.07;;;1.20;;
7340;SDS011;6870;50.944;6.932;2023-07-30T13:41:04;3.13;;;1.87;;
7340;SDS011;6870;50.944;6.932;2023-07-30T13:43:32;3.20;;;1.50;;
7340;SDS011;6870;50.944;6.932;2023-07-30T13:46:02;2.83;;;1.57;;
7340;SDS011;6870;50.944;6.932;2023-07-30T13:48:30;2.90;;;1.30;;
7340;SDS011;6870;50.944;6.932;2023-07-30T13:50:58;2.40;;;1.60;;
7340;SDS011;6870;50.944;6.932;2023-07-30T13:53:26;3.40;;;1.53;;
7340;SDS011;6870;50.944;6.932;2023-07-30T13:55:54;4.03;;;2.00;;
7340;SDS011;6870;50.944;6.932;2023-07-30T13:58:22;3.93;;;1.43;;
7340;SDS011;6870;50.944;6.932;2023-07-30T14:00:53;4.23;;;1.70;;
7340;SDS011;6870;50.944;6.932;2023-07-30T14:03:22;1.60;;;1.13;;
7340;SDS011;6870;50.944;6.932;2023-07-30T14:05:50;3.80;;;1.60;;
7340;SDS011;6870;50.944;6.932;2023-07-30T14:08:18;2.73;;;1.50;;
7340;SDS011;6870;50.944;6.932;2023-07-30T14:10:47;2.80;;;1.70;;
7340;SDS011;6870;50.944;6.932;2023-07-30T14:13:15;3.93;;;1.80;;
7340;SDS011;6870;50.944;6.932;2023-07-30T14:15:43;2.83;;;1.70;;
7340;SDS011;6870;50.944;6.932;2023-07-30T14:18:11;3.40;;;1.43;;
7340;SDS011;6870;50.944;6.932;2023-07-30T14:20:41;3.60;;;1.47;;
7340;SDS011;6870;50.944;6.932;2023-07-30T14:23:09;4.07;;;1.60;;
7340;SDS011;6870;50.944;6.932;2023-07-30T14:25:37;3.63;;;1.60;;
7340;SDS011;6870;50.944;6.932;2023-07-30T14:28:05;3.10;;;1.43;;
7340;SDS011;6870;50.944;6.932;2023-07-30T14:30:34;2.37;;;1.37;;
7340;SDS011;6870;50.944;6.932;2023-07-30T14:33:02;1.53;;;1.00;;
7340;SDS011;6870;50.944;6.932;2023-07-30T14:35:30;5.27;;;2.10;;
7340;SDS011;6870;50.944;6.932;2023-07-30T14:37:59;2.83;;;1.30;;
7340;SDS011;6870;50.944;6.932;2023-07-30T14:40:27;3.97;;;1.67;;
7340;SDS011;6870;50.944;6.932;2023-07-30T14:42:55;3.33;;;1.43;;
7340;SDS011;6870;50.944;6.932;2023-07-30T14:45:24;4.50;;;1.63;;
7340;SDS011;6870;50.944;6.932;2023-07-30T14:47:52;2.50;;;1.20;;
7340;SDS011;6870;50.944;6.932;2023-07-30T14:50:20;1.80;;;1.17;;
7340;SDS011;6870;50.944;6.932;2023-07-30T14:52:49;2.43;;;1.20;;
7340;SDS011;6870;50.944;6.932;2023-07-30T14:55:18;1.67;;;0.97;;
7340;SDS011;6870;50.944;6.932;2023-07-30T14:57:46;2.80;;;1.23;;
7340;SDS011;6870;50.944;6.932;2023-07-30T15:00:14;2.80;;;1.50;;
7340;SDS011;6870;50.944;6.932;2023-07-30T15:02:43;2.57;;;1.27;;
7340;SDS011;6870;50.944;6.932;2023-07-30T15:05:11;3.70;;;1.47;;
7340;SDS011;6870;50.944;6.932;2023-07-30T15:07:39;3.13;;;1.50;;
7340;SDS011;6870;50.944;6.932;2023-07-30T15:10:07;3.47;;;1.60;;
7340;SDS011;6870;50.944;6.932;2023-07-30T15:12:37;4.90;;;1.50;;
7340;SDS011;6870;50.944;6.932;2023-07-30T15:15:06;2.47;;;1.23;;
7340;SDS011;6870;50.944;6.932;2023-07-30T15:17:35;1.90;;;1.20;;
7340;SDS011;6870;50.944;6.932;2023-07-30T15:20:04;2.67;;;1.60;;
7340;SDS011;6870;50.944;6.932;2023-07-30T15:22:33;4.83;;;1.70;;
7340;SDS011;6870;50.944;6.932;2023-07-30T15:25:01;2.30;;;1.40;;
7340;SDS011;6870;50.944;6.932;2023-07-30T15:27:30;2.43;;;1.20;;
7340;SDS011;6870;50.944;6.932;2023-07-30T15:30:00;2.30;;;1.13;;